createdAt,value
2018-09-21T00:00:46.330Z,17.23
2018-09-21T00:03:14.789Z,18.23
2018-09-21T00:05:42.983Z,18.73
2018-09-21T00:08:11.272Z,19.00
2018-09-21T00:10:39.457Z,18.57
2018-09-21T00:13:07.682Z,19.30
2018-09-21T00:15:36.109Z,20.40
2018-09-21T00:18:04.326Z,19.70
2018-09-21T00:20:32.520Z,19.93
2018-09-21T00:23:00.800Z,20.33
2018-09-21T00:25:29.059Z,18.77
2018-09-21T00:27:57.281Z,21.47
2018-09-21T00:30:25.517Z,20.50
2018-09-21T00:32:53.701Z,18.67
2018-09-21T00:35:21.892Z,18.57
2018-09-21T00:37:50.165Z,19.30
2018-09-21T00:40:18.432Z,18.80
2018-09-21T00:42:46.689Z,18.00
2018-09-21T00:45:14.871Z,19.20
2018-09-21T00:47:43.077Z,18.53
2018-09-21T00:50:11.318Z,18.60
2018-09-21T00:52:39.605Z,20.30
2018-09-21T00:55:07.793Z,18.40
2018-09-21T00:57:36.061Z,20.10
2018-09-21T01:00:04.755Z,20.07
2018-09-21T01:02:33.003Z,17.80
2018-09-21T01:05:01.283Z,19.87
2018-09-21T01:07:29.494Z,18.90
2018-09-21T01:09:57.742Z,18.13
2018-09-21T01:12:25.942Z,18.83
2018-09-21T01:14:54.198Z,18.50
2018-09-21T01:17:22.466Z,18.23
2018-09-21T01:19:50.741Z,19.67
2018-09-21T01:22:19.016Z,18.97
2018-09-21T01:24:47.278Z,20.13
2018-09-21T01:27:16.564Z,18.17
2018-09-21T01:29:45.436Z,20.03
2018-09-21T01:32:13.898Z,17.93
2018-09-21T01:34:42.085Z,18.90
2018-09-21T01:37:10.541Z,18.63
2018-09-21T01:39:38.777Z,18.93
2018-09-21T01:42:06.961Z,18.43
2018-09-21T01:44:35.266Z,20.30
2018-09-21T01:47:03.604Z,18.13
2018-09-21T01:49:31.877Z,21.10
2018-09-21T01:52:00.073Z,19.87
2018-09-21T01:54:28.302Z,20.45
2018-09-21T01:56:56.509Z,21.43
2018-09-21T01:59:24.797Z,20.53
2018-09-21T02:01:53.071Z,20.40
2018-09-21T02:04:25.439Z,19.77
2018-09-21T02:06:53.712Z,19.47
2018-09-21T02:09:21.988Z,18.97
2018-09-21T02:11:50.506Z,18.60
2018-09-21T02:14:18.751Z,19.80
2018-09-21T02:16:47.068Z,18.90
2018-09-21T02:19:15.438Z,19.87
2018-09-21T02:21:43.614Z,19.67
2018-09-21T02:24:11.848Z,19.73
2018-09-21T02:26:40.036Z,19.27
2018-09-21T02:29:08.822Z,19.50
2018-09-21T02:31:37.102Z,19.50
2018-09-21T02:34:05.775Z,18.90
2018-09-21T02:36:33.961Z,18.70
2018-09-21T02:39:02.305Z,19.70
2018-09-21T02:41:30.681Z,19.50
2018-09-21T02:43:58.781Z,19.03
2018-09-21T02:46:26.993Z,19.60
2018-09-21T02:48:55.396Z,19.57
2018-09-21T02:51:23.641Z,19.90
2018-09-21T02:53:51.883Z,19.70
2018-09-21T02:56:20.781Z,21.33
2018-09-21T02:58:49.333Z,20.60
2018-09-21T03:01:17.729Z,20.40
2018-09-21T03:03:45.952Z,19.90
2018-09-21T03:06:14.445Z,19.37
2018-09-21T03:08:42.683Z,19.00
2018-09-21T03:11:11.209Z,20.17
2018-09-21T03:13:39.392Z,18.03
2018-09-21T03:16:07.603Z,20.20
2018-09-21T03:18:35.799Z,19.57
2018-09-21T03:21:04.003Z,19.03
2018-09-21T03:23:32.182Z,18.23
2018-09-21T03:26:00.369Z,47.27
2018-09-21T03:28:28.670Z,30.93
2018-09-21T03:30:56.852Z,21.90
2018-09-21T03:33:25.170Z,21.23
2018-09-21T03:35:53.398Z,19.93
2018-09-21T03:38:21.578Z,19.43
2018-09-21T03:40:49.806Z,18.87
2018-09-21T03:43:18.014Z,56.10
2018-09-21T03:45:46.310Z,27.17
2018-09-21T03:48:14.614Z,20.17
2018-09-21T03:50:43.147Z,19.80
2018-09-21T03:53:11.351Z,20.50
2018-09-21T03:55:39.750Z,19.27
2018-09-21T03:58:07.966Z,19.80
2018-09-21T04:00:36.157Z,19.50
2018-09-21T04:03:04.448Z,19.20
2018-09-21T04:05:32.654Z,20.07
2018-09-21T04:08:00.833Z,20.10
2018-09-21T04:10:29.075Z,20.37
2018-09-21T04:12:58.079Z,21.03
2018-09-21T04:15:26.605Z,21.20
2018-09-21T04:17:54.786Z,18.07
2018-09-21T04:20:23.045Z,20.67
2018-09-21T04:23:00.152Z,20.27
2018-09-21T04:25:28.638Z,20.48
2018-09-21T04:27:56.824Z,19.70
2018-09-21T04:30:25.687Z,54.97
2018-09-21T04:32:53.890Z,25.27
2018-09-21T04:35:22.162Z,25.20
2018-09-21T04:37:50.880Z,25.60
2018-09-21T04:40:19.125Z,21.73
2018-09-21T04:42:47.421Z,22.80
2018-09-21T04:45:15.800Z,22.60
2018-09-21T04:47:44.001Z,19.50
2018-09-21T04:50:12.643Z,21.30
2018-09-21T04:52:40.937Z,19.70
2018-09-21T04:55:09.289Z,20.20
2018-09-21T04:57:38.159Z,20.10
2018-09-21T05:00:07.235Z,21.97
2018-09-21T05:02:35.477Z,21.10
2018-09-21T05:05:03.774Z,23.47
2018-09-21T05:07:32.809Z,21.60
2018-09-21T05:10:01.005Z,22.67
2018-09-21T05:12:29.287Z,23.27
2018-09-21T05:14:57.479Z,22.40
2018-09-21T05:17:25.668Z,26.20
2018-09-21T05:19:54.131Z,25.83
2018-09-21T05:22:22.293Z,27.47
2018-09-21T05:24:50.570Z,28.60
2018-09-21T05:27:19.614Z,27.27
2018-09-21T05:29:47.796Z,27.80
2018-09-21T05:32:15.996Z,26.80
2018-09-21T05:34:44.351Z,27.27
2018-09-21T05:37:12.478Z,27.73
2018-09-21T05:39:40.696Z,28.87
2018-09-21T05:42:08.872Z,27.90
2018-09-21T05:44:37.092Z,28.37
2018-09-21T05:47:05.368Z,30.50
2018-09-21T05:49:33.624Z,29.27
2018-09-21T05:52:02.147Z,27.50
2018-09-21T05:54:30.393Z,27.23
2018-09-21T05:56:58.569Z,26.83
2018-09-21T05:59:26.788Z,28.30
2018-09-21T06:01:54.998Z,28.77
2018-09-21T06:04:23.150Z,28.87
2018-09-21T06:06:51.335Z,26.00
2018-09-21T06:09:19.538Z,28.30
2018-09-21T06:11:47.722Z,27.43
2018-09-21T06:14:16.005Z,27.27
2018-09-21T06:16:44.192Z,26.23
2018-09-21T06:19:12.437Z,24.03
2018-09-21T06:21:41.036Z,25.23
2018-09-21T06:24:09.231Z,23.75
2018-09-21T06:26:37.716Z,23.53
2018-09-21T06:29:06.225Z,21.50
2018-09-21T06:31:34.432Z,23.53
2018-09-21T06:34:02.706Z,20.50
2018-09-21T06:36:30.996Z,21.10
2018-09-21T06:38:59.189Z,19.10
2018-09-21T06:41:27.360Z,19.47
2018-09-21T06:43:55.685Z,19.87
2018-09-21T06:46:23.886Z,19.33
2018-09-21T06:48:52.178Z,18.83
2018-09-21T06:51:20.668Z,19.60
2018-09-21T06:53:48.828Z,21.47
2018-09-21T06:56:17.102Z,19.73
2018-09-21T06:58:45.518Z,20.47
2018-09-21T07:01:13.697Z,19.50
2018-09-21T07:03:42.146Z,19.23
2018-09-21T07:06:10.427Z,18.07
2018-09-21T07:08:38.729Z,17.40
2018-09-21T07:11:06.957Z,18.00
2018-09-21T07:13:35.241Z,19.37
2018-09-21T07:16:03.425Z,17.73
2018-09-21T07:18:31.692Z,18.57
2018-09-21T07:20:59.893Z,16.80
2018-09-21T07:23:28.349Z,17.27
2018-09-21T07:25:56.624Z,17.20
2018-09-21T07:28:24.832Z,18.23
2018-09-21T07:30:53.063Z,19.80
2018-09-21T07:33:21.238Z,19.67
2018-09-21T07:35:49.557Z,18.87
2018-09-21T07:38:18.049Z,20.33
2018-09-21T07:40:46.298Z,18.03
2018-09-21T07:43:14.479Z,18.23
2018-09-21T07:45:42.661Z,18.00
2018-09-21T07:48:10.993Z,18.47
2018-09-21T07:50:39.429Z,17.60
2018-09-21T07:53:07.575Z,16.77
2018-09-21T07:55:35.824Z,16.73
2018-09-21T07:58:04.107Z,22.37
2018-09-21T08:00:32.310Z,19.20
2018-09-21T08:03:00.566Z,18.10
2018-09-21T08:05:35.125Z,15.83
2018-09-21T08:08:04.744Z,16.43
2018-09-21T08:10:32.956Z,15.87
2018-09-21T08:13:01.892Z,16.47
2018-09-21T08:15:30.798Z,15.20
2018-09-21T08:17:59.216Z,18.43
2018-09-21T08:20:27.778Z,18.03
2018-09-21T08:22:55.997Z,16.70
2018-09-21T08:25:24.419Z,16.70
2018-09-21T08:27:52.780Z,15.47
2018-09-21T08:30:21.004Z,18.13
2018-09-21T08:32:49.648Z,15.37
2018-09-21T08:35:17.904Z,15.53
2018-09-21T08:37:46.199Z,16.87
2018-09-21T08:40:14.427Z,16.13
2018-09-21T08:42:42.750Z,14.77
2018-09-21T08:45:10.933Z,15.93
2018-09-21T08:47:39.568Z,16.00
2018-09-21T08:50:08.701Z,14.97
2018-09-21T08:52:37.492Z,15.30
2018-09-21T08:55:05.945Z,15.13
2018-09-21T08:57:34.109Z,14.07
2018-09-21T09:00:02.601Z,15.60
2018-09-21T09:02:30.925Z,13.70
2018-09-21T09:04:59.178Z,14.47
2018-09-21T09:07:27.338Z,14.13
2018-09-21T09:09:55.736Z,13.40
2018-09-21T09:12:23.930Z,13.70
2018-09-21T09:14:52.132Z,14.23
2018-09-21T09:17:20.461Z,12.83
2018-09-21T09:19:48.930Z,14.60
2018-09-21T09:22:17.178Z,13.97
2018-09-21T09:27:13.838Z,14.07
2018-09-21T09:29:42.114Z,11.80
2018-09-21T09:32:10.297Z,12.80
2018-09-21T09:34:38.493Z,12.20
2018-09-21T09:37:06.947Z,11.67
2018-09-21T09:39:35.310Z,13.20
2018-09-21T09:42:03.505Z,12.00
2018-09-21T09:44:31.686Z,12.30
2018-09-21T09:46:59.929Z,11.50
2018-09-21T09:49:28.430Z,12.53
2018-09-21T09:51:56.707Z,12.13
2018-09-21T09:54:24.975Z,11.30
2018-09-21T09:56:53.572Z,10.90
2018-09-21T09:59:21.827Z,11.03
2018-09-21T10:01:50.154Z,10.97
2018-09-21T10:04:18.318Z,12.77
2018-09-21T10:06:46.564Z,10.77
2018-09-21T10:09:15.185Z,10.50
2018-09-21T10:11:43.524Z,9.40
2018-09-21T10:14:11.800Z,10.50
2018-09-21T10:16:40.079Z,11.80
2018-09-21T10:19:08.312Z,8.50
2018-09-21T10:21:36.509Z,9.30
2018-09-21T10:24:04.738Z,8.40
2018-09-21T10:26:32.883Z,9.00
2018-09-21T10:29:01.146Z,9.47
2018-09-21T10:31:29.373Z,11.50
2018-09-21T10:33:57.610Z,10.60
2018-09-21T10:36:25.923Z,9.13
2018-09-21T10:38:54.157Z,9.50
2018-09-21T10:41:22.433Z,8.77
2018-09-21T10:43:50.697Z,8.40
2018-09-21T10:46:19.133Z,8.20
2018-09-21T10:48:47.397Z,8.17
2018-09-21T10:51:15.589Z,8.90
2018-09-21T10:53:43.749Z,8.50
2018-09-21T10:56:11.975Z,8.97
2018-09-21T10:58:40.217Z,7.07
2018-09-21T11:01:08.355Z,9.23
2018-09-21T11:03:36.536Z,8.20
2018-09-21T11:06:04.775Z,7.20
2018-09-21T11:08:33.036Z,8.00
2018-09-21T11:11:01.224Z,6.30
2018-09-21T11:13:29.502Z,7.43
2018-09-21T11:15:57.770Z,6.63
2018-09-21T11:18:25.996Z,6.60
2018-09-21T11:20:54.190Z,6.93
2018-09-21T11:23:22.381Z,6.00
2018-09-21T11:25:50.684Z,5.93
2018-09-21T11:28:18.952Z,7.30
2018-09-21T11:30:47.228Z,6.43
2018-09-21T11:33:15.641Z,6.67
2018-09-21T11:35:43.848Z,6.30
2018-09-21T11:38:12.041Z,6.23
2018-09-21T11:40:40.453Z,6.17
2018-09-21T11:43:08.725Z,5.73
2018-09-21T11:45:36.903Z,6.70
2018-09-21T11:48:05.113Z,6.67
2018-09-21T11:50:33.333Z,5.60
2018-09-21T11:53:01.527Z,6.60
2018-09-21T11:55:29.895Z,9.47
2018-09-21T11:57:58.088Z,8.37
2018-09-21T12:00:26.343Z,6.30
2018-09-21T12:02:54.632Z,7.00
2018-09-21T12:05:22.821Z,5.70
2018-09-21T12:07:51.221Z,17.80
2018-09-21T12:10:19.416Z,6.33
2018-09-21T12:12:47.611Z,6.40
2018-09-21T12:15:15.789Z,6.73
2018-09-21T12:17:44.083Z,5.90
2018-09-21T12:20:12.343Z,6.63
2018-09-21T12:22:40.664Z,5.93
2018-09-21T12:25:08.912Z,6.37
2018-09-21T12:27:37.176Z,5.93
2018-09-21T12:30:05.429Z,5.40
2018-09-21T12:32:33.629Z,5.53
2018-09-21T12:35:01.788Z,5.80
2018-09-21T12:37:30.060Z,5.87
2018-09-21T12:39:58.286Z,5.50
2018-09-21T12:42:26.502Z,4.90
2018-09-21T12:44:54.795Z,5.50
2018-09-21T12:47:22.976Z,4.40
2018-09-21T12:49:51.236Z,5.10
2018-09-21T12:52:19.412Z,4.80
2018-09-21T12:54:47.594Z,5.97
2018-09-21T12:57:15.770Z,5.40
2018-09-21T12:59:43.942Z,5.08
2018-09-21T13:02:12.133Z,4.67
2018-09-21T13:04:40.306Z,4.70
2018-09-21T13:07:08.489Z,4.50
2018-09-21T13:09:36.685Z,5.20
2018-09-21T13:12:04.872Z,5.43
2018-09-21T13:14:33.070Z,5.20
2018-09-21T13:17:01.233Z,5.37
2018-09-21T13:19:29.422Z,4.90
2018-09-21T13:21:57.625Z,4.40
2018-09-21T13:24:25.807Z,5.27
2018-09-21T13:26:54.095Z,4.43
2018-09-21T13:29:22.235Z,5.03
2018-09-21T13:31:50.448Z,5.10
2018-09-21T13:34:18.616Z,4.90
2018-09-21T13:36:46.832Z,4.73
2018-09-21T13:39:15.160Z,4.23
2018-09-21T13:41:43.414Z,4.93
2018-09-21T13:44:11.580Z,4.83
2018-09-21T13:46:40.678Z,5.07
2018-09-21T13:49:08.844Z,4.87
2018-09-21T13:51:37.028Z,4.70
2018-09-21T13:54:05.220Z,4.65
2018-09-21T13:56:33.384Z,4.62
2018-09-21T13:59:01.606Z,4.70
2018-09-21T14:01:29.784Z,4.80
2018-09-21T14:03:58.492Z,5.60
2018-09-21T14:06:26.670Z,4.53
2018-09-21T14:08:55.021Z,5.17
2018-09-21T14:11:23.345Z,5.07
2018-09-21T14:13:51.521Z,5.43
2018-09-21T14:16:19.760Z,5.20
2018-09-21T14:18:47.941Z,5.07
2018-09-21T14:21:16.154Z,5.60
2018-09-21T14:23:44.329Z,5.63
2018-09-21T14:26:12.555Z,5.40
2018-09-21T14:28:40.709Z,5.57
2018-09-21T14:31:08.937Z,6.20
2018-09-21T14:33:37.137Z,6.00
2018-09-21T14:36:05.333Z,6.00
2018-09-21T14:38:33.535Z,5.30
2018-09-21T14:41:01.725Z,5.77
2018-09-21T14:43:29.916Z,5.33
2018-09-21T14:45:58.201Z,5.97
2018-09-21T14:48:26.464Z,5.50
2018-09-21T14:50:54.749Z,4.87
2018-09-21T14:53:23.041Z,5.20
2018-09-21T14:55:51.224Z,5.77
2018-09-21T14:58:19.467Z,5.87
2018-09-21T15:00:47.793Z,5.57
2018-09-21T15:03:16.018Z,4.63
2018-09-21T15:05:44.303Z,4.67
2018-09-21T15:08:12.633Z,5.33
2018-09-21T15:10:40.840Z,5.13
2018-09-21T15:13:09.092Z,5.07
2018-09-21T15:15:37.315Z,4.77
2018-09-21T15:18:05.570Z,5.10
2018-09-21T15:20:33.772Z,4.90
2018-09-21T15:23:02.475Z,5.97
2018-09-21T15:25:30.655Z,4.80
2018-09-21T15:27:58.881Z,4.57
2018-09-21T15:30:27.212Z,4.20
2018-09-21T15:32:55.433Z,4.50
2018-09-21T15:35:23.993Z,4.20
2018-09-21T15:37:52.388Z,5.13
2018-09-21T15:40:20.581Z,5.37
2018-09-21T15:42:48.955Z,4.87
2018-09-21T15:45:17.185Z,5.37
2018-09-21T15:47:45.621Z,8.50
2018-09-21T15:50:13.899Z,7.40
2018-09-21T15:52:42.203Z,5.33
2018-09-21T15:55:10.621Z,4.87
2018-09-21T15:57:38.830Z,5.53
2018-09-21T16:00:07.823Z,4.50
2018-09-21T16:02:36.134Z,5.33
2018-09-21T16:05:04.400Z,5.20
2018-09-21T16:07:32.668Z,4.87
2018-09-21T16:10:00.908Z,4.80
2018-09-21T16:12:29.389Z,4.73
2018-09-21T16:14:57.816Z,4.30
2018-09-21T16:17:26.084Z,5.33
2018-09-21T16:19:54.328Z,4.30
2018-09-21T16:22:22.742Z,4.80
2018-09-21T16:24:51.192Z,4.53
2018-09-21T16:27:19.922Z,4.47
2018-09-21T16:29:48.177Z,4.73
2018-09-21T16:32:16.409Z,4.50
2018-09-21T16:34:44.653Z,4.97
2018-09-21T16:37:12.891Z,5.80
2018-09-21T16:39:41.082Z,4.60
2018-09-21T16:42:09.338Z,5.97
2018-09-21T16:44:37.672Z,9.73
2018-09-21T16:47:06.082Z,4.87
2018-09-21T16:49:34.254Z,5.70
2018-09-21T16:52:02.600Z,11.40
2018-09-21T16:54:30.825Z,4.93
2018-09-21T16:56:58.996Z,5.23
2018-09-21T16:59:27.270Z,5.47
2018-09-21T17:01:55.548Z,4.60
2018-09-21T17:04:23.910Z,4.70
2018-09-21T17:06:52.060Z,3.57
2018-09-21T17:09:20.270Z,4.07
2018-09-21T17:11:48.466Z,5.80
2018-09-21T17:14:16.730Z,6.53
2018-09-21T17:16:44.913Z,4.50
2018-09-21T17:19:13.176Z,5.17
2018-09-21T17:21:41.520Z,3.90
2018-09-21T17:24:09.716Z,6.97
2018-09-21T17:26:38.053Z,5.07
2018-09-21T17:29:06.643Z,10.77
2018-09-21T17:31:34.914Z,3.83
2018-09-21T17:34:03.233Z,4.73
2018-09-21T17:36:31.601Z,4.33
2018-09-21T17:38:59.805Z,4.27
2018-09-21T17:41:28.129Z,3.87
2018-09-21T17:43:56.354Z,4.20
2018-09-21T17:46:24.535Z,5.17
2018-09-21T17:48:52.785Z,6.70
2018-09-21T17:51:21.090Z,4.53
2018-09-21T17:53:49.282Z,5.43
2018-09-21T17:56:17.514Z,4.90
2018-09-21T17:58:45.708Z,4.73
2018-09-21T18:01:13.907Z,4.50
2018-09-21T18:03:42.130Z,4.67
2018-09-21T18:06:10.426Z,5.07
2018-09-21T18:08:38.698Z,5.33
2018-09-21T18:11:07.068Z,5.73
2018-09-21T18:13:35.248Z,4.60
2018-09-21T18:16:03.592Z,4.40
2018-09-21T18:18:31.742Z,4.90
2018-09-21T18:20:59.936Z,4.60
2018-09-21T18:23:28.129Z,4.57
2018-09-21T18:25:56.478Z,4.43
2018-09-21T18:28:24.661Z,4.30
2018-09-21T18:30:52.866Z,5.33
2018-09-21T18:33:21.502Z,5.33
2018-09-21T18:35:49.745Z,6.40
2018-09-21T18:38:18.037Z,4.93
2018-09-21T18:40:46.208Z,5.40
2018-09-21T18:43:14.605Z,5.73
2018-09-21T18:45:42.851Z,5.13
2018-09-21T18:48:11.025Z,5.17
2018-09-21T18:50:39.420Z,4.80
2018-09-21T18:53:07.603Z,7.40
2018-09-21T18:55:35.928Z,4.80
2018-09-21T18:58:04.132Z,5.13
2018-09-21T19:00:32.376Z,5.43
2018-09-21T19:03:00.570Z,5.83
2018-09-21T19:05:28.794Z,4.97
2018-09-21T19:07:56.980Z,5.67
2018-09-21T19:10:25.190Z,7.07
2018-09-21T19:12:53.476Z,3.80
2018-09-21T19:15:21.888Z,2.50
2018-09-21T19:17:50.120Z,2.40
2018-09-21T19:20:18.316Z,1.70
2018-09-21T19:22:46.922Z,4.50
2018-09-21T19:25:15.157Z,1.07
2018-09-21T19:27:43.372Z,1.30
2018-09-21T19:30:11.608Z,0.50
2018-09-21T19:32:39.810Z,1.07
2018-09-21T19:35:08.202Z,0.50
2018-09-21T19:37:36.462Z,0.90
2018-09-21T19:40:04.711Z,0.70
2018-09-21T19:42:32.940Z,0.87
2018-09-21T19:45:01.253Z,0.90
2018-09-21T19:47:29.433Z,0.80
2018-09-21T19:49:57.745Z,0.60
2018-09-21T19:52:25.962Z,0.83
2018-09-21T19:54:54.161Z,1.10
2018-09-21T19:57:22.346Z,0.70
2018-09-21T19:59:51.372Z,0.70
2018-09-21T20:02:20.553Z,0.83
2018-09-21T20:04:49.707Z,0.80
2018-09-21T20:07:18.797Z,0.60
2018-09-21T20:09:48.183Z,0.67
2018-09-21T20:12:17.423Z,0.67
2018-09-21T20:14:45.759Z,0.83
2018-09-21T20:17:14.375Z,0.73
2018-09-21T20:19:43.609Z,0.90
2018-09-21T20:22:12.488Z,0.60
2018-09-21T20:24:41.938Z,0.80
2018-09-21T20:27:10.842Z,0.90
2018-09-21T20:29:39.958Z,1.17
2018-09-21T20:32:14.057Z,0.80
2018-09-21T20:34:42.938Z,1.00
2018-09-21T20:37:12.808Z,0.73
2018-09-21T20:39:42.013Z,1.07
2018-09-21T20:42:11.274Z,2.50
2018-09-21T20:44:40.243Z,0.97
2018-09-21T20:47:09.687Z,1.23
2018-09-21T20:49:38.805Z,1.53
2018-09-21T20:52:08.765Z,1.27
2018-09-21T20:54:37.859Z,1.33
2018-09-21T20:57:06.848Z,5.80
2018-09-21T20:59:35.141Z,2.10
2018-09-21T21:04:29.241Z,1.53
2018-09-21T21:06:57.449Z,1.50
2018-09-21T21:09:25.729Z,1.40
2018-09-21T21:11:54.313Z,1.40
2018-09-21T21:14:22.493Z,1.20
2018-09-21T21:16:50.721Z,1.30
2018-09-21T21:19:19.034Z,1.53
2018-09-21T21:21:47.265Z,2.03
2018-09-21T21:24:15.543Z,1.50
2018-09-21T21:26:43.733Z,1.40
2018-09-21T21:29:12.000Z,1.63
2018-09-21T21:31:40.165Z,1.40
2018-09-21T21:34:08.348Z,1.52
2018-09-21T21:36:36.550Z,1.43
2018-09-21T21:39:07.442Z,1.47
2018-09-21T21:41:35.721Z,1.50
2018-09-21T21:44:03.906Z,1.10
2018-09-21T21:46:32.094Z,1.50
2018-09-21T21:49:00.289Z,1.20
2018-09-21T21:51:28.453Z,1.40
2018-09-21T21:53:56.615Z,1.67
2018-09-21T21:56:24.800Z,1.70
2018-09-21T21:58:53.058Z,1.60
2018-09-21T22:01:26.665Z,1.20
2018-09-21T22:03:55.169Z,1.37
2018-09-21T22:06:23.540Z,1.27
2018-09-21T22:08:51.838Z,2.00
2018-09-21T22:12:24.193Z,1.20
2018-09-21T22:14:52.374Z,1.97
2018-09-21T22:17:20.618Z,2.10
2018-09-21T22:19:48.786Z,2.30
2018-09-21T22:22:17.044Z,2.10
2018-09-21T22:24:45.234Z,1.73
2018-09-21T22:27:15.330Z,1.70
2018-09-21T22:29:43.645Z,1.60
2018-09-21T22:32:12.018Z,1.60
2018-09-21T22:34:40.193Z,1.60
2018-09-21T22:37:08.457Z,1.43
2018-09-21T22:39:36.638Z,1.67
2018-09-21T22:42:04.898Z,2.20
2018-09-21T22:44:33.073Z,1.53
2018-09-21T22:47:01.233Z,1.57
2018-09-21T22:49:29.437Z,1.67
2018-09-21T22:51:58.457Z,1.20
2018-09-21T22:54:26.629Z,1.40
2018-09-21T22:56:54.801Z,1.23
2018-09-21T22:59:23.074Z,1.17
2018-09-21T23:01:51.244Z,1.63
2018-09-21T23:04:19.485Z,1.10
2018-09-21T23:06:47.789Z,1.23
2018-09-21T23:09:16.013Z,1.37
2018-09-21T23:11:44.209Z,1.50
2018-09-21T23:14:12.403Z,1.30
2018-09-21T23:16:40.817Z,1.47
2018-09-21T23:19:09.409Z,1.63
2018-09-21T23:21:37.588Z,1.23
2018-09-21T23:24:05.767Z,1.23
2018-09-21T23:26:33.968Z,1.60
2018-09-21T23:29:02.158Z,1.40
2018-09-21T23:31:30.412Z,1.83
2018-09-21T23:33:58.594Z,1.50
2018-09-21T23:36:26.786Z,1.33
2018-09-21T23:38:54.957Z,3.53
2018-09-21T23:41:23.164Z,2.17
2018-09-21T23:43:51.350Z,2.03
2018-09-21T23:46:19.518Z,1.50
2018-09-21T23:48:47.702Z,1.10
2018-09-21T23:51:15.934Z,1.37
2018-09-21T23:53:44.127Z,1.43
2018-09-21T23:56:12.308Z,1.50
2018-09-21T23:58:40.488Z,1.57
